createdAt,value
2019-01-15T00:00:23.959Z,13.83
2019-01-15T00:02:52.439Z,18.17
2019-01-15T00:05:21.083Z,16.70
2019-01-15T00:07:49.643Z,18.33
2019-01-15T00:10:18.258Z,17.27
2019-01-15T00:12:46.733Z,15.33
2019-01-15T00:15:15.280Z,18.73
2019-01-15T00:17:43.768Z,19.67
2019-01-15T00:20:16.279Z,17.73
2019-01-15T00:22:44.867Z,18.67
2019-01-15T00:25:13.905Z,18.60
2019-01-15T00:27:42.462Z,18.30
2019-01-15T00:30:16.710Z,19.97
2019-01-15T00:32:45.250Z,16.00
2019-01-15T00:35:13.811Z,23.57
2019-01-15T00:37:42.367Z,18.07
2019-01-15T00:40:16.285Z,20.03
2019-01-15T00:42:44.767Z,27.50
2019-01-15T00:45:14.056Z,14.57
2019-01-15T00:47:42.522Z,23.40
2019-01-15T00:50:13.834Z,26.13
2019-01-15T00:52:42.443Z,18.67
2019-01-15T00:55:12.296Z,21.87
2019-01-15T00:57:40.859Z,16.03
2019-01-15T01:00:12.660Z,23.77
2019-01-15T01:02:41.147Z,15.40
2019-01-15T01:05:09.753Z,18.07
2019-01-15T01:07:38.220Z,15.30
2019-01-15T01:10:09.760Z,21.70
2019-01-15T01:12:38.295Z,20.70
2019-01-15T01:15:09.867Z,20.70
2019-01-15T01:17:38.419Z,22.23
2019-01-15T01:20:10.018Z,21.57
2019-01-15T01:22:38.576Z,15.30
2019-01-15T01:25:10.349Z,14.87
2019-01-15T01:27:38.923Z,19.53
2019-01-15T01:30:18.601Z,21.60
2019-01-15T01:32:47.233Z,21.83
2019-01-15T01:35:15.783Z,14.00
2019-01-15T01:37:44.439Z,18.83
2019-01-15T01:40:17.272Z,19.40
2019-01-15T01:42:46.052Z,13.97
2019-01-15T01:45:15.791Z,21.50
2019-01-15T01:47:44.359Z,15.87
2019-01-15T01:50:13.934Z,20.30
2019-01-15T01:52:42.993Z,16.37
2019-01-15T01:55:15.316Z,14.97
2019-01-15T01:57:44.099Z,16.20
2019-01-15T02:00:15.190Z,13.53
2019-01-15T02:02:43.903Z,11.33
2019-01-15T02:05:12.527Z,15.57
2019-01-15T02:07:41.071Z,19.43
2019-01-15T02:10:14.875Z,13.03
2019-01-15T02:12:45.864Z,15.33
2019-01-15T02:15:17.421Z,15.57
2019-01-15T02:17:46.083Z,17.37
2019-01-15T02:20:19.665Z,14.80
2019-01-15T02:22:48.462Z,10.37
2019-01-15T02:25:16.940Z,13.17
2019-01-15T02:27:47.306Z,15.27
2019-01-15T02:30:35.197Z,19.40
2019-01-15T02:33:03.663Z,21.00
2019-01-15T02:35:32.279Z,14.90
2019-01-15T02:38:00.764Z,22.13
2019-01-15T02:40:29.232Z,15.93
2019-01-15T02:42:57.784Z,18.63
2019-01-15T02:45:26.270Z,12.57
2019-01-15T02:47:54.818Z,13.43
2019-01-15T02:50:23.374Z,14.93
2019-01-15T02:52:51.930Z,13.63
2019-01-15T02:55:20.489Z,21.07
2019-01-15T02:57:52.077Z,14.80
2019-01-15T03:00:22.702Z,11.07
2019-01-15T03:02:51.226Z,20.57
2019-01-15T03:05:19.919Z,14.20
2019-01-15T03:07:48.391Z,12.33
2019-01-15T03:10:19.099Z,16.50
2019-01-15T03:12:55.590Z,15.13
2019-01-15T03:15:21.879Z,18.37
2019-01-15T03:17:50.615Z,14.63
2019-01-15T03:20:19.407Z,14.17
2019-01-15T03:22:47.926Z,15.07
2019-01-15T03:25:16.695Z,17.13
2019-01-15T03:27:45.620Z,16.97
2019-01-15T03:30:19.732Z,13.30
2019-01-15T03:32:48.247Z,15.97
2019-01-15T03:35:16.785Z,15.10
2019-01-15T03:37:45.380Z,16.17
2019-01-15T03:40:22.237Z,14.50
2019-01-15T03:42:51.034Z,11.97
2019-01-15T03:45:19.608Z,11.63
2019-01-15T03:47:48.339Z,11.77
2019-01-15T03:50:17.409Z,19.23
2019-01-15T03:52:45.888Z,12.57
2019-01-15T03:55:15.507Z,15.40
2019-01-15T03:57:44.376Z,10.73
2019-01-15T04:00:18.513Z,22.33
2019-01-15T04:02:47.607Z,14.17
2019-01-15T04:05:17.177Z,12.07
2019-01-15T04:07:47.667Z,12.60
2019-01-15T04:10:16.506Z,13.77
2019-01-15T04:12:45.059Z,6.57
2019-01-15T04:15:14.276Z,12.03
2019-01-15T04:17:42.822Z,13.17
2019-01-15T04:20:13.936Z,9.90
2019-01-15T04:22:42.827Z,10.80
2019-01-15T04:25:12.480Z,16.27
2019-01-15T04:27:40.981Z,17.47
2019-01-15T04:30:12.849Z,11.67
2019-01-15T04:32:41.424Z,9.53
2019-01-15T04:35:10.556Z,10.13
2019-01-15T04:37:39.091Z,16.20
2019-01-15T04:40:11.191Z,8.43
2019-01-15T04:42:39.745Z,12.23
2019-01-15T04:45:11.477Z,17.00
2019-01-15T04:47:39.963Z,14.73
2019-01-15T04:50:10.060Z,11.83
2019-01-15T04:52:39.885Z,14.20
2019-01-15T04:55:12.286Z,12.33
2019-01-15T04:57:40.919Z,13.97
2019-01-15T05:00:20.783Z,19.80
2019-01-15T05:02:49.433Z,15.87
2019-01-15T05:05:18.025Z,12.07
2019-01-15T05:07:46.513Z,11.80
2019-01-15T05:10:16.376Z,11.07
2019-01-15T05:12:44.943Z,9.10
2019-01-15T05:15:15.603Z,8.50
2019-01-15T05:17:44.291Z,8.20
2019-01-15T05:20:18.662Z,10.30
2019-01-15T05:22:50.046Z,11.97
2019-01-15T05:25:20.528Z,15.13
2019-01-15T05:27:49.449Z,16.53
2019-01-15T05:30:20.421Z,8.80
2019-01-15T05:32:48.971Z,7.90
2019-01-15T05:35:17.604Z,8.90
2019-01-15T05:37:46.328Z,13.87
2019-01-15T05:40:15.895Z,19.33
2019-01-15T05:42:44.712Z,14.03
2019-01-15T05:45:17.667Z,10.10
2019-01-15T05:47:46.480Z,9.10
2019-01-15T05:50:19.662Z,10.57
2019-01-15T05:52:48.241Z,9.63
2019-01-15T05:55:16.795Z,7.07
2019-01-15T05:57:45.309Z,9.37
2019-01-15T06:00:16.212Z,7.27
2019-01-15T06:02:44.774Z,8.97
2019-01-15T06:05:14.402Z,7.60
2019-01-15T06:07:43.661Z,12.27
2019-01-15T06:10:14.733Z,9.53
2019-01-15T06:12:43.840Z,10.07
2019-01-15T06:15:31.684Z,10.57
2019-01-15T06:18:00.257Z,9.53
2019-01-15T06:20:28.783Z,7.90
2019-01-15T06:22:57.263Z,6.47
2019-01-15T06:25:25.814Z,8.63
2019-01-15T06:27:54.268Z,10.57
2019-01-15T06:30:23.209Z,10.23
2019-01-15T06:32:51.827Z,11.47
2019-01-15T06:35:20.501Z,9.93
2019-01-15T06:37:49.061Z,9.08
2019-01-15T06:40:21.476Z,10.67
2019-01-15T06:42:50.145Z,6.30
2019-01-15T06:45:26.577Z,10.37
2019-01-15T06:47:55.102Z,7.90
2019-01-15T06:50:23.801Z,13.47
2019-01-15T06:52:52.346Z,10.53
2019-01-15T06:55:21.988Z,10.40
2019-01-15T06:57:50.985Z,13.67
2019-01-15T07:00:28.105Z,10.33
2019-01-15T07:02:56.904Z,14.70
2019-01-15T07:05:25.374Z,12.37
2019-01-15T07:07:56.057Z,9.97
2019-01-15T07:10:32.970Z,14.40
2019-01-15T07:13:01.598Z,9.93
2019-01-15T07:15:30.155Z,10.67
2019-01-15T07:18:01.435Z,10.13
2019-01-15T07:20:30.152Z,10.47
2019-01-15T07:22:58.776Z,9.70
2019-01-15T07:25:28.977Z,12.80
2019-01-15T07:27:57.808Z,10.90
2019-01-15T07:30:29.446Z,9.53
2019-01-15T07:32:58.001Z,9.10
2019-01-15T07:35:26.573Z,17.73
2019-01-15T07:37:55.102Z,13.63
2019-01-15T07:40:24.528Z,12.87
2019-01-15T07:42:53.084Z,17.00
2019-01-15T07:45:21.641Z,11.00
2019-01-15T07:47:50.127Z,18.00
2019-01-15T07:50:19.941Z,14.20
2019-01-15T07:52:48.852Z,9.60
2019-01-15T07:55:18.772Z,12.40
2019-01-15T07:57:47.249Z,14.23
2019-01-15T08:00:20.963Z,14.03
2019-01-15T08:02:50.638Z,17.60
2019-01-15T08:05:22.118Z,13.00
2019-01-15T08:07:50.670Z,16.27
2019-01-15T08:10:19.952Z,11.60
2019-01-15T08:12:49.590Z,15.20
2019-01-15T08:15:20.488Z,15.67
2019-01-15T08:17:49.519Z,12.37
2019-01-15T08:20:18.168Z,16.07
2019-01-15T08:22:46.694Z,12.97
2019-01-15T08:25:16.777Z,13.10
2019-01-15T08:27:45.333Z,17.13
2019-01-15T08:30:19.702Z,16.17
2019-01-15T08:32:48.177Z,16.73
2019-01-15T08:35:16.788Z,12.33
2019-01-15T08:37:45.320Z,20.00
2019-01-15T08:40:16.354Z,14.43
2019-01-15T08:42:46.378Z,15.03
2019-01-15T08:45:16.891Z,14.53
2019-01-15T08:48:05.234Z,14.30
2019-01-15T08:50:34.302Z,19.33
2019-01-15T08:53:02.851Z,14.33
2019-01-15T08:55:31.382Z,15.77
2019-01-15T08:57:59.882Z,17.40
2019-01-15T09:00:28.338Z,12.03
2019-01-15T09:02:56.902Z,14.17
2019-01-15T09:05:25.454Z,20.63
2019-01-15T09:07:53.989Z,18.43
2019-01-15T09:10:22.556Z,16.57
2019-01-15T09:12:52.006Z,11.87
2019-01-15T09:15:23.561Z,11.27
2019-01-15T09:17:52.212Z,16.13
2019-01-15T09:20:21.818Z,14.80
2019-01-15T09:22:50.883Z,17.43
2019-01-15T09:25:19.355Z,18.17
2019-01-15T09:27:48.014Z,16.87
2019-01-15T09:30:18.742Z,11.57
2019-01-15T09:32:47.463Z,19.97
2019-01-15T09:35:16.053Z,15.97
2019-01-15T09:37:45.740Z,20.37
2019-01-15T09:40:16.648Z,13.90
2019-01-15T09:42:45.138Z,17.17
2019-01-15T09:45:18.324Z,18.73
2019-01-15T09:47:51.417Z,17.37
2019-01-15T09:50:20.037Z,16.67
2019-01-15T09:52:49.041Z,21.27
2019-01-15T09:55:17.654Z,16.63
2019-01-15T09:57:46.204Z,25.47
2019-01-15T10:00:17.519Z,18.90
2019-01-15T10:02:46.158Z,19.57
2019-01-15T10:05:14.663Z,21.47
2019-01-15T10:07:43.296Z,19.50
2019-01-15T10:10:14.852Z,20.87
2019-01-15T10:12:43.326Z,19.60
2019-01-15T10:15:14.985Z,16.40
2019-01-15T10:17:43.531Z,23.20
2019-01-15T10:20:14.055Z,19.70
2019-01-15T10:22:45.417Z,19.90
2019-01-15T10:25:15.547Z,19.70
2019-01-15T10:27:44.584Z,18.53
2019-01-15T10:30:18.178Z,18.73
2019-01-15T10:32:49.873Z,25.07
2019-01-15T10:35:28.888Z,20.23
2019-01-15T10:37:57.216Z,24.00
2019-01-15T10:40:25.900Z,19.17
2019-01-15T10:42:54.408Z,24.93
2019-01-15T10:45:22.938Z,22.37
2019-01-15T10:47:51.490Z,16.93
2019-01-15T10:50:20.211Z,20.57
2019-01-15T10:52:48.772Z,20.10
2019-01-15T10:55:17.357Z,20.43
2019-01-15T10:57:45.931Z,14.87
2019-01-15T11:00:15.694Z,18.57
2019-01-15T11:02:46.347Z,17.83
2019-01-15T11:05:17.687Z,17.90
2019-01-15T11:07:46.245Z,17.70
2019-01-15T11:10:16.353Z,15.53
2019-01-15T11:12:44.931Z,16.07
2019-01-15T11:15:13.707Z,17.13
2019-01-15T11:17:42.277Z,14.43
2019-01-15T11:20:19.333Z,15.80
2019-01-15T11:22:48.040Z,12.60
2019-01-15T11:25:16.729Z,15.27
2019-01-15T11:27:45.376Z,13.73
2019-01-15T11:30:15.368Z,16.47
2019-01-15T11:32:43.985Z,14.17
2019-01-15T11:35:13.517Z,14.93
2019-01-15T11:37:42.088Z,13.53
2019-01-15T11:40:13.718Z,13.50
2019-01-15T11:42:42.302Z,11.90
2019-01-15T11:45:13.930Z,14.40
2019-01-15T11:47:42.509Z,13.40
2019-01-15T11:50:16.861Z,12.53
2019-01-15T11:52:45.419Z,16.37
2019-01-15T11:55:14.066Z,14.90
2019-01-15T11:57:42.715Z,16.17
2019-01-15T12:00:18.563Z,13.63
2019-01-15T12:02:48.990Z,13.63
2019-01-15T12:05:21.670Z,13.20
2019-01-15T12:07:54.444Z,17.30
2019-01-15T12:10:24.634Z,11.93
2019-01-15T12:13:00.833Z,12.70
2019-01-15T12:15:31.910Z,13.70
2019-01-15T12:18:08.351Z,13.73
2019-01-15T12:20:41.513Z,13.63
2019-01-15T12:23:11.906Z,11.90
2019-01-15T12:25:47.830Z,16.27
2019-01-15T12:28:21.006Z,12.23
2019-01-15T12:31:09.417Z,14.73
2019-01-15T12:33:39.642Z,16.83
2019-01-15T12:36:29.216Z,17.53
2019-01-15T12:39:15.645Z,16.13
2019-01-15T12:41:48.919Z,16.97
2019-01-15T12:44:28.505Z,17.43
2019-01-15T12:47:07.500Z,11.27
2019-01-15T12:49:56.710Z,17.57
2019-01-15T12:52:26.819Z,14.47
2019-01-15T12:54:59.656Z,17.27
2019-01-15T12:57:42.090Z,16.27
2019-01-15T13:00:17.616Z,14.20
2019-01-15T13:02:47.754Z,26.17
2019-01-15T13:05:23.675Z,21.87
2019-01-15T13:07:56.530Z,19.60
2019-01-15T13:10:26.750Z,19.07
2019-01-15T13:13:12.279Z,20.40
2019-01-15T13:16:00.308Z,23.60
2019-01-15T13:18:46.787Z,31.47
2019-01-15T13:21:16.900Z,26.43
2019-01-15T13:24:03.209Z,25.23
2019-01-15T13:26:39.440Z,27.13
2019-01-15T13:29:26.050Z,19.70
2019-01-15T13:31:59.221Z,21.00
2019-01-15T13:34:38.649Z,20.50
2019-01-15T13:37:14.514Z,21.37
2019-01-15T13:39:53.750Z,20.77
2019-01-15T13:42:38.950Z,25.10
2019-01-15T13:45:10.912Z,16.90
2019-01-15T13:47:41.100Z,20.63
2019-01-15T13:50:23.673Z,20.10
2019-01-15T13:53:10.257Z,21.10
2019-01-15T13:55:40.420Z,23.40
2019-01-15T13:58:27.200Z,24.83
2019-01-15T14:01:03.277Z,26.90
2019-01-15T14:03:33.472Z,20.40
2019-01-15T14:06:20.235Z,25.47
2019-01-15T14:08:53.119Z,24.47
2019-01-15T14:11:41.485Z,32.63
2019-01-15T14:14:28.047Z,28.27
2019-01-15T14:16:58.257Z,24.80
2019-01-15T14:19:31.454Z,26.07
2019-01-15T14:22:18.322Z,23.27
2019-01-15T14:25:04.761Z,25.67
2019-01-15T14:27:34.907Z,24.33
2019-01-15T14:30:06.619Z,22.03
2019-01-15T14:32:45.788Z,19.40
2019-01-15T14:35:27.938Z,23.53
2019-01-15T14:37:58.079Z,18.73
2019-01-15T14:40:31.434Z,17.40
2019-01-15T14:43:01.651Z,22.57
2019-01-15T14:45:48.074Z,21.00
2019-01-15T14:48:34.649Z,22.50
2019-01-15T14:51:10.442Z,17.17
2019-01-15T14:53:46.641Z,21.20
2019-01-15T14:56:22.944Z,18.57
2019-01-15T14:58:58.786Z,15.90
2019-01-15T15:01:45.147Z,17.37
2019-01-15T15:04:21.259Z,19.43
2019-01-15T15:06:54.357Z,21.50
2019-01-15T15:09:39.520Z,16.20
2019-01-15T15:12:12.247Z,14.60
2019-01-15T15:14:45.437Z,14.13
2019-01-15T15:17:31.002Z,13.47
2019-01-15T15:20:10.149Z,13.20
2019-01-15T15:22:40.355Z,15.40
2019-01-15T15:25:16.691Z,11.93
2019-01-15T15:28:02.224Z,16.13
2019-01-15T15:30:35.218Z,15.40
2019-01-15T15:33:14.362Z,17.17
2019-01-15T15:36:00.513Z,19.53
2019-01-15T15:38:48.664Z,17.77
2019-01-15T15:41:18.890Z,18.23
2019-01-15T15:43:52.040Z,18.50
2019-01-15T15:46:25.143Z,23.10
2019-01-15T15:48:58.003Z,26.67
2019-01-15T15:51:36.962Z,22.17
2019-01-15T15:54:07.418Z,24.40
2019-01-15T15:56:46.319Z,27.63
2019-01-15T15:59:16.458Z,24.27
2019-01-15T16:02:03.135Z,27.87
2019-01-15T16:04:51.164Z,29.93
2019-01-15T16:07:26.755Z,25.27
2019-01-15T16:10:06.283Z,28.30
2019-01-15T16:12:38.862Z,35.03
2019-01-15T16:15:10.422Z,27.70
2019-01-15T16:17:49.200Z,22.07
2019-01-15T16:20:35.558Z,27.03
2019-01-15T16:23:05.728Z,26.47
2019-01-15T16:25:41.473Z,23.47
2019-01-15T16:28:11.673Z,33.67
2019-01-15T16:30:53.788Z,26.93
2019-01-15T16:33:26.457Z,29.70
2019-01-15T16:36:01.510Z,29.57
2019-01-15T16:38:31.800Z,25.20
2019-01-15T16:41:14.292Z,32.77
2019-01-15T16:43:50.482Z,29.73
2019-01-15T16:46:35.857Z,26.93
2019-01-15T16:49:06.095Z,28.30
2019-01-15T16:51:48.378Z,42.07
2019-01-15T16:54:24.509Z,31.77
2019-01-15T16:56:57.572Z,34.37
2019-01-15T16:59:31.336Z,29.57
2019-01-15T17:02:07.211Z,37.17
2019-01-15T17:04:49.431Z,33.20
2019-01-15T17:07:19.612Z,40.50
2019-01-15T17:09:58.710Z,33.80
2019-01-15T17:12:35.349Z,29.53
2019-01-15T17:15:21.877Z,35.57
2019-01-15T17:17:54.748Z,31.60
2019-01-15T17:20:24.987Z,33.37
2019-01-15T17:22:58.146Z,42.50
2019-01-15T17:25:31.076Z,38.07
2019-01-15T17:28:07.323Z,28.63
2019-01-15T17:30:43.593Z,32.30
2019-01-15T17:33:13.805Z,24.67
2019-01-15T17:35:46.674Z,27.60
2019-01-15T17:38:22.792Z,28.10
2019-01-15T17:40:53.011Z,34.90
2019-01-15T17:43:35.097Z,31.13
2019-01-15T17:46:11.733Z,33.27
2019-01-15T17:48:58.157Z,36.47
2019-01-15T17:51:34.305Z,33.27
2019-01-15T17:54:09.051Z,30.63
2019-01-15T17:56:49.016Z,32.60
2019-01-15T17:59:24.850Z,39.27
2019-01-15T18:02:13.247Z,33.03
2019-01-15T18:04:59.458Z,33.67
2019-01-15T18:07:32.516Z,33.40
2019-01-15T18:10:02.754Z,33.20
2019-01-15T18:12:44.771Z,33.20
2019-01-15T18:15:25.391Z,34.27
2019-01-15T18:17:58.424Z,34.57
2019-01-15T18:20:40.350Z,33.57
2019-01-15T18:23:16.485Z,29.83
2019-01-15T18:25:46.714Z,27.13
2019-01-15T18:28:17.482Z,25.57
2019-01-15T18:31:04.604Z,35.23
2019-01-15T18:33:43.885Z,33.60
2019-01-15T18:36:17.511Z,27.87
2019-01-15T18:38:48.644Z,31.30
2019-01-15T18:41:18.903Z,29.27
2019-01-15T18:43:55.070Z,29.83
2019-01-15T18:46:43.469Z,27.80
2019-01-15T18:49:22.682Z,24.87
2019-01-15T18:51:55.719Z,21.20
2019-01-15T18:54:36.009Z,20.83
2019-01-15T18:57:12.394Z,22.07
2019-01-15T18:59:54.904Z,23.80
2019-01-15T19:02:25.135Z,20.80
2019-01-15T19:04:55.348Z,27.90
2019-01-15T19:07:42.993Z,24.53
2019-01-15T19:10:13.386Z,18.47
2019-01-15T19:12:46.580Z,23.67
2019-01-15T19:15:16.804Z,20.47
2019-01-15T19:18:03.208Z,22.33
2019-01-15T19:20:37.669Z,24.70
2019-01-15T19:23:10.323Z,26.77
2019-01-15T19:25:43.109Z,22.20
2019-01-15T19:28:16.348Z,21.67
2019-01-15T19:31:04.658Z,21.53
2019-01-15T19:33:37.952Z,21.00
2019-01-15T19:36:11.090Z,21.97
2019-01-15T19:38:52.868Z,22.57
2019-01-15T19:41:35.224Z,20.53
2019-01-15T19:44:20.208Z,24.20
2019-01-15T19:46:53.396Z,24.00
2019-01-15T19:49:23.599Z,22.60
2019-01-15T19:51:54.287Z,22.53
2019-01-15T19:54:39.807Z,21.23
2019-01-15T19:57:16.819Z,19.57
2019-01-15T19:59:59.194Z,25.67
2019-01-15T20:02:29.394Z,20.00
2019-01-15T20:05:16.922Z,18.20
2019-01-15T20:07:48.669Z,17.53
2019-01-15T20:10:21.586Z,12.87
2019-01-15T20:12:57.844Z,22.10
2019-01-15T20:15:46.373Z,20.57
2019-01-15T20:18:32.910Z,19.87
2019-01-15T20:21:17.402Z,18.10
2019-01-15T20:23:45.296Z,21.30
2019-01-15T20:26:28.869Z,23.83
2019-01-15T20:28:59.101Z,22.50
2019-01-15T20:31:35.256Z,20.77
2019-01-15T20:34:11.478Z,25.50
2019-01-15T20:36:41.677Z,21.43
2019-01-15T20:39:14.386Z,20.17
2019-01-15T20:41:56.823Z,21.40
2019-01-15T20:44:32.586Z,27.40
2019-01-15T20:47:08.807Z,24.87
2019-01-15T20:49:41.495Z,27.03
2019-01-15T20:52:28.088Z,35.87
2019-01-15T20:55:05.369Z,35.77
2019-01-15T20:57:41.785Z,34.10
2019-01-15T21:00:16.394Z,33.93
2019-01-15T21:02:58.398Z,34.40
2019-01-15T21:05:28.592Z,34.90
2019-01-15T21:08:04.614Z,36.97
2019-01-15T21:10:37.477Z,32.20
2019-01-15T21:13:19.858Z,34.07
2019-01-15T21:15:50.077Z,39.67
2019-01-15T21:18:36.348Z,30.93
2019-01-15T21:21:18.655Z,34.43
2019-01-15T21:23:48.893Z,31.50
2019-01-15T21:26:30.945Z,33.87
2019-01-15T21:29:12.839Z,38.70
2019-01-15T21:31:45.955Z,35.67
2019-01-15T21:34:16.185Z,41.83
2019-01-15T21:37:02.619Z,34.17
2019-01-15T21:39:35.936Z,32.43
2019-01-15T21:42:09.325Z,34.27
2019-01-15T21:44:39.557Z,42.40
2019-01-15T21:47:21.672Z,35.80
2019-01-15T21:50:07.695Z,29.47
2019-01-15T21:52:38.167Z,29.77
2019-01-15T21:55:09.864Z,31.90
2019-01-15T21:57:46.248Z,33.60
2019-01-15T22:00:17.941Z,32.93
2019-01-15T22:03:00.020Z,27.13
2019-01-15T22:05:30.223Z,33.70
2019-01-15T22:08:00.444Z,34.77
2019-01-15T22:10:39.559Z,32.10
2019-01-15T22:13:26.018Z,31.57
2019-01-15T22:16:11.042Z,24.50
2019-01-15T22:18:53.370Z,26.07
2019-01-15T22:21:26.613Z,26.97
2019-01-15T22:24:04.221Z,27.83
2019-01-15T22:26:34.429Z,18.93
2019-01-15T22:29:04.961Z,23.80
2019-01-15T22:31:51.727Z,28.20
2019-01-15T22:34:28.118Z,29.50
2019-01-15T22:37:09.870Z,25.23
2019-01-15T22:39:40.140Z,23.43
2019-01-15T22:42:16.434Z,28.27
2019-01-15T22:44:49.381Z,25.67
2019-01-15T22:47:36.154Z,22.83
2019-01-15T22:50:11.963Z,22.30
2019-01-15T22:52:42.094Z,28.73
2019-01-15T22:55:24.273Z,20.87
2019-01-15T22:58:00.448Z,27.07
2019-01-15T23:00:39.855Z,25.73
2019-01-15T23:03:26.699Z,27.40
2019-01-15T23:05:59.684Z,23.93
2019-01-15T23:08:29.915Z,22.63
2019-01-15T23:11:12.074Z,20.43
2019-01-15T23:13:48.243Z,20.93
2019-01-15T23:16:18.496Z,21.17
2019-01-15T23:18:54.594Z,19.07
2019-01-15T23:21:36.771Z,22.27
2019-01-15T23:24:19.007Z,22.23
2019-01-15T23:27:00.969Z,17.97
2019-01-15T23:29:47.549Z,21.93
2019-01-15T23:32:36.117Z,19.27
2019-01-15T23:35:23.423Z,19.67
2019-01-15T23:37:59.807Z,20.47
2019-01-15T23:40:30.084Z,21.30
2019-01-15T23:43:16.570Z,27.37
2019-01-15T23:45:49.562Z,22.73
2019-01-15T23:48:36.187Z,16.27
2019-01-15T23:51:06.533Z,20.23
2019-01-15T23:53:42.572Z,19.80
2019-01-15T23:56:15.831Z,16.90
2019-01-15T23:58:49.225Z,23.37
